Messwerte Port Moresby

Temperatur

Temperatur
°C
1624042800 5.00 5.00 25
1624046400 6.00 6.00 25
1624050000 7.00 7.00 25
1624053600 8.00 8.00 26
1624057200 9.00 9.00 28
1624060800 10.00 10.00 29
1624064400 11.00 11.00 30
1624068000 12.00 12.00 31
1624071600 13.00 13.00
1624075200 14.00 14.00 31
1624078800 15.00 15.00 31
1624082400 16.00 16.00 29
1624086000 17.00 17.00 28
1624089600 18.00 18.00 27
1624093200 19.00 19.00 26
1624096800 20.00 20.00 26
1624100400 21.00 21.00 25
1624104000 22.00 22.00 25
1624107600 23.00 23.00
1624111200 0.00 0.00
1624114800 1.00 1.00 24
1624118400 2.00 2.00 24
1624122000 3.00 3.00 24
1624125600 4.00 4.00 23

Aktuellste Messwerte

Wettercharakter
Wetter: meist klar
Temperatur
23 °C
Feuchtigkeit
90 %
Wind
20 km/hWindrichtung: Südost
Luftdruck
1011 hPa
Messzeit: 20. Juni 2021, 4.00Datenquelle: METAR

Wind

Windrichtung Böen Mittelwind
° km/h km/h
1624042800 5.00 4.00 - 5.00 130° 35 20
1624046400 6.00 5.00 - 6.00 130° 30 20
1624050000 7.00 6.00 - 7.00 120° 20
1624053600 8.00 7.00 - 8.00 130° 20
1624057200 9.00 8.00 - 9.00 140° 30
1624060800 10.00 9.00 - 10.00 150° 35 20
1624064400 11.00 10.00 - 11.00 150° 35 20
1624068000 12.00 11.00 - 12.00 160° 35 20
1624071600 13.00 12.00 - 13.00
1624075200 14.00 13.00 - 14.00 160° 35 20
1624078800 15.00 14.00 - 15.00 160° 35 20
1624082400 16.00 15.00 - 16.00 150° 40 30
1624086000 17.00 16.00 - 17.00 160° 35 20
1624089600 18.00 17.00 - 18.00 170° 10
1624093200 19.00 18.00 - 19.00 150° 35 30
1624096800 20.00 19.00 - 20.00 150° 35 20
1624100400 21.00 20.00 - 21.00 140° 20
1624104000 22.00 21.00 - 22.00 140° 20
1624107600 23.00 22.00 - 23.00
1624111200 0.00 23.00 - 0.00
1624114800 1.00 0.00 - 1.00 130° 20
1624118400 2.00 1.00 - 2.00 130° 20
1624122000 3.00 2.00 - 3.00 130° 20
1624125600 4.00 3.00 - 4.00 130° 20

Ihre Wetterstation

Fehlt Ihre Wetterstation auf unserem Portal?

Schreiben Sie an network@meteonews.ch